Charter Quote
Worldwide +1-877-727-2538 Call
Select Language Lang
SAFETY RELIABILITY EXPERIENCE

Private Jet Charter Services - Gasa (ZPJH)

Paramount Business Jets offers private jet charter flights and luxury airliner charters to and from Gasa.

AIRPORT INFORMATION
ICAOZPJH
LOCATIONJinghonggasa, China
FACILITY TYPEAIRPORT

At Paramount Business Jets you can hire chartered private jets to and from Gasa with as little as 4 hours of notice. All flights booked via Paramount Business Jets are operated by certified direct air carriers that meet and exceed the FAA part 135 and 121 protocol or a foreign equivalent safety authority. Furthermore, Paramount Business Jets subscribes to ARGUS for their third party safety checks of operators, aircraft, and crews prior each and every flight to and from Gasa and worldwide.

  • Quote a trip using Gasa or call us 24/7 - 365 days a year at +1-877-727-2538.
Questions? Call +1-877-727-2538

METAR Weather Data at Gasa, ZPJH

STATIONZPJH
OBSERVEDSun Mar 15, 11:00 UTC
NOWMon Oct 21, 20:31 UTC
AGE40353:31 hr ago
WINDW at 7 mph
VISIBILITYgreater than 7 miles
CLOUDSclear skies
TEMP88°F (31°C)
DEWPT45°F (7°C)
HUMIDITY22%
BAROMETER1011 hPa (29.85 in Hg)
METARZPJH 151100Z 28003MPS 240V300 CAVOK 31/07 Q1011 NOSIG

Call us on +1-877-727-2538 (24 Hours) to Hire a Private Jet or Get a Quick Quote.

Find Airports Near any Location

Processing
...